Latest Weather Observations for Yulara

IDD60801

Issued at 2:31 pm CST Saturday 28 March 2015 (issued every 30 minutes, with the page automatically refreshed every 10 minutes)

About weather observations | Map of weather stations | Latest weather observations for NT | Other Formats
Station Details ID: 015635 Name: YULARA AIRPORT Lat: -25.19 Lon: 130.97 Height: 492.0 m
Data from the previous 72 hours. | See also: Recent months at Yulara
Date/Time
CST
Temp
°C
App
Temp
°C
Dew
Point
Rel
Hum
%
Delta-T
°C
Wind Press
QNH
hPa
Press
MSL
hPa
Rain
since 9 am
mm
Dir
 
Spd
km/h
Gust
km/h
Spd
kts
Gust
kts
28/02:30pm 29.7 25.0 -1.6 13 14.8 NE 13 20 7 11 1018.5 1015.4 0.0
28/02:00pm 29.8 24.6 -2.6 12 15.1 ENE 15 26 8 14 1019.0 1015.8 0.0
28/01:30pm 29.2 24.3 -3.1 12 14.8 NE 13 26 7 14 1019.5 1016.3 0.0
28/01:00pm 28.6 22.8 -4.7 11 14.8 E 17 26 9 14 1020.0 1016.8 0.0
28/12:30pm 28.2 22.5 -3.9 12 14.4 ENE 17 30 9 16 1020.3 1017.2 0.0
28/12:00pm 27.7 21.2 -2.2 14 13.8 E 22 30 12 16 1020.9 1017.8 0.0
28/11:30am 27.5 21.1 -1.4 15 13.5 ENE 22 33 12 18 1021.3 1018.1 0.0
28/11:00am 25.6 18.8 -2.1 16 12.6 ENE 24 33 13 18 1021.8 1018.6 0.0
28/10:30am 24.9 18.1 -1.8 17 12.1 E 24 35 13 19 1022.2 1019.1 0.0
28/10:00am 23.8 17.0 -1.9 18 11.6 ENE 24 32 13 17 1022.5 1019.4 0.0
28/09:30am 23.2 16.8 -1.7 19 11.2 ENE 22 37 12 20 1022.6 1019.5 0.0
28/09:00am 22.0 14.9 -1.3 21 10.4 ENE 26 32 14 17 1022.7 1019.6 0.0
28/08:30am 20.3 13.9 -1.5 23 9.6 E 22 33 12 18 1022.3 1019.2 0.0
28/08:00am 20.0 14.0 -1.2 24 9.4 E 20 26 11 14 1022.1 1019.0 0.0
28/07:30am 18.8 14.2 -1.1 26 8.7 ESE 13 17 7 9 1021.8 1018.6 0.0
28/07:00am 17.5 13.6 -1.7 27 8.2 ESE 9 13 5 7 1021.6 1018.4 0.0
28/06:30am 17.8 13.1 -1.9 26 8.4 ESE 13 15 7 8 1021.3 1018.1 0.0
28/06:00am 18.2 13.8 -2.1 25 8.7 ESE 11 17 6 9 1020.8 1017.7 0.0
28/05:30am 18.3 13.9 -2.6 24 8.8 ESE 11 15 6 8 1020.6 1017.5 0.0
28/05:00am 19.0 14.2 -2.6 23 9.2 ESE 13 17 7 9 1020.4 1017.3 0.0
28/04:30am 18.8 14.4 -2.7 23 9.1 SE 11 15 6 8 1020.4 1017.3 0.0
28/04:00am 19.1 15.0 -3.1 22 9.4 SE 9 13 5 7 1020.5 1017.4 0.0
28/03:30am 20.0 15.1 -3.6 20 9.9 ESE 13 17 7 9 1020.5 1017.4 0.0
28/03:00am 20.6 16.4 -3.8 19 10.3 ESE 9 13 5 7 1020.7 1017.6 0.0
28/02:30am 21.0 16.5 -3.5 19 10.4 ESE 11 15 6 8 1020.9 1017.8 0.0
28/02:00am 21.5 16.6 -3.8 18 10.8 E 13 15 7 8 1021.2 1018.0 0.0
28/01:30am 22.0 16.7 -3.4 18 10.9 E 15 20 8 11 1021.3 1018.1 0.0
28/01:00am 22.4 16.8 -3.1 18 11.1 E 17 20 9 11 1021.6 1018.4 0.0
28/12:30am 22.7 17.9 -2.8 18 11.2 E 13 19 7 10 1022.0 1018.9 0.0
28/12:00am 23.0 17.4 -2.6 18 11.3 E 17 20 9 11 1021.9 1018.8 0.0
 
Date/Time
CST
Temp
°C
App
Temp
°C
Dew
Point
Rel
Hum
%
Delta-T
°C
Wind Press
QNH
hPa
Press
MSL
hPa
Rain
since 9 am
mm
Dir
 
Spd
km/h
Gust
km/h
Spd
kts
Gust
kts
27/11:30pm 23.3 17.8 -2.3 18 11.4 E 17 22 9 12 1022.1 1019.0 0.0
27/11:00pm 23.2 18.6 -1.0 20 11.0 E 13 19 7 10 1022.1 1019.0 0.0
27/10:30pm 23.8 19.3 -0.5 20 11.2 E 13 17 7 9 1021.9 1018.8 0.0
27/10:00pm 24.6 19.8 0.2 20 11.5 E 15 19 8 10 1021.9 1018.8 0.0
27/09:30pm 25.3 20.8 0.0 19 11.9 E 13 17 7 9 1022.1 1019.0 0.0
27/09:00pm 26.0 21.3 0.6 19 12.2 E 15 19 8 10 1021.6 1018.4 0.0
27/08:30pm 26.2 21.9 0.8 19 12.2 E 13 17 7 9 1021.4 1018.2 0.0
27/08:00pm 26.7 21.5 0.4 18 12.7 E 17 20 9 11 1021.1 1017.9 0.0
27/07:30pm 27.3 21.8 0.9 18 12.8 E 19 22 10 12 1020.6 1017.5 0.0
27/07:00pm 27.9 22.2 0.6 17 13.3 E 20 28 11 15 1020.2 1017.1 0.0
27/06:30pm 28.9 22.8 0.6 16 13.8 E 22 30 12 16 1019.9 1016.7 0.0
27/06:00pm 29.5 23.0 0.2 15 14.3 E 24 33 13 18 1019.8 1016.6 0.0
27/05:30pm 29.7 23.6 0.3 15 14.4 E 22 32 12 17 1019.6 1016.4 0.0
27/05:00pm 30.1 23.6 0.6 15 14.6 E 24 33 13 18 1019.5 1016.3 0.0
27/04:30pm 30.2 24.1 0.7 15 14.6 E 22 32 12 17 1019.5 1016.3 0.0
27/04:00pm 30.5 24.7 0.0 14 15.0 E 20 32 11 17 1019.8 1016.6 0.0
27/03:30pm 30.1 23.6 0.6 15 14.5 E 24 37 13 20 1020.1 1017.0 0.0
27/03:00pm 29.6 23.6 1.1 16 14.1 E 22 32 12 17 1020.5 1017.4 0.0
27/02:30pm 28.9 23.2 0.6 16 13.8 E 20 30 11 16 1021.1 1017.9 0.0
27/02:00pm 28.5 22.0 0.3 16 13.7 E 24 33 13 18 1021.7 1018.5 0.0
27/01:30pm 28.3 21.4 0.1 16 13.6 ENE 26 41 14 22 1022.0 1018.9 0.0
27/01:00pm 27.3 20.9 0.9 18 12.9 E 24 39 13 21 1022.9 1019.8 0.0
27/12:30pm 27.1 20.4 1.5 19 12.5 E 26 37 14 20 1023.8 1020.7 0.0
27/12:00pm 25.3 18.2 1.4 21 11.5 E 28 37 15 20 1024.4 1021.3 0.0
27/11:30am 25.1 18.5 1.9 22 11.3 E 26 39 14 21 1024.7 1021.6 0.0
27/11:00am 24.3 17.7 1.9 23 10.9 E 26 39 14 21 1025.1 1022.0 0.0
27/10:30am 23.1 15.6 1.4 24 10.3 E 30 43 16 23 1025.3 1022.2 0.0
27/10:00am 21.9 14.4 1.5 26 9.7 E 30 41 16 22 1025.8 1022.7 0.0
27/09:30am 21.5 13.1 1.7 27 9.3 E 35 46 19 25 1026.0 1022.9 0.0
27/09:00am 21.0 13.9 1.3 27 9.2 E 28 37 15 20 1026.0 1022.9 0.0
27/08:30am 20.1 13.1 2.0 30 8.5 E 28 35 15 19 1026.0 1022.9 0.0
27/08:00am 19.2 11.8 2.1 32 8.0 E 30 39 16 21 1025.3 1022.2 0.0
27/07:30am 18.2 13.2 3.7 38 6.9 E 19 26 10 14 1025.2 1022.1 0.0
27/07:00am 18.0 13.1 3.9 39 6.8 ESE 19 28 10 15 1025.0 1021.9 0.0
27/06:30am 18.1 13.7 4.7 41 6.5 ESE 17 24 9 13 1025.0 1021.9 0.0
27/06:00am 18.2 14.2 5.1 42 6.5 ESE 15 20 8 11 1024.9 1021.8 0.0
27/05:30am 18.5 13.7 5.4 42 6.5 E 20 30 11 16 1024.4 1021.3 0.0
27/05:00am 18.8 14.6 5.6 42 6.6 ESE 17 22 9 12 1024.6 1021.5 0.0
27/04:30am 19.2 14.6 5.6 41 6.8 ESE 19 24 10 13 1024.4 1021.3 0.0
27/04:00am 19.3 15.1 5.7 41 6.9 ESE 17 20 9 11 1024.1 1021.0 0.0
27/03:30am 19.7 15.9 5.7 40 7.1 ESE 15 20 8 11 1024.1 1021.0 0.0
27/03:00am 20.0 16.5 5.6 39 7.3 ESE 13 19 7 10 1024.3 1021.2 0.0
27/02:30am 20.5 16.2 5.3 37 7.6 E 17 24 9 13 1024.3 1021.2 0.0
27/02:00am 20.5 16.1 4.9 36 7.8 ESE 17 22 9 12 1024.6 1021.5 0.0
27/01:30am 20.8 16.8 4.8 35 8.0 ESE 15 19 8 10 1024.8 1021.7 0.0
27/01:00am 21.2 16.7 4.3 33 8.4 ESE 17 20 9 11 1024.8 1021.7 0.0
27/12:30am 21.7 17.6 4.3 32 8.6 E 15 19 8 10 1024.8 1021.7 0.0
27/12:00am 22.1 18.0 4.2 31 8.9 ESE 15 20 8 11 1024.8 1021.7 0.0
 
Date/Time
CST
Temp
°C
App
Temp
°C
Dew
Point
Rel
Hum
%
Delta-T
°C
Wind Press
QNH
hPa
Press
MSL
hPa
Rain
since 9 am
mm
Dir
 
Spd
km/h
Gust
km/h
Spd
kts
Gust
kts
26/11:30pm 21.9 18.1 4.0 31 8.9 ESE 13 19 7 10 1024.9 1021.8 0.0
26/11:00pm 22.1 18.7 4.2 31 8.9 ESE 11 15 6 8 1025.2 1022.1 0.0
26/10:30pm 22.6 18.8 3.7 29 9.3 ESE 13 15 7 8 1025.1 1022.0 0.0
26/10:00pm 23.2 20.1 3.7 28 9.7 E 9 13 5 7 1024.9 1021.8 0.0
26/09:30pm 24.0 20.6 3.9 27 10.1 E 11 13 6 7 1024.8 1021.7 0.0
26/09:00pm 25.1 21.4 4.3 26 10.6 ESE 13 17 7 9 1024.4 1021.3 0.0
26/08:30pm 25.6 21.8 4.1 25 10.9 SE 13 17 7 9 1024.1 1021.0 0.0
26/08:00pm 26.2 22.8 4.1 24 11.3 ESE 11 15 6 8 1023.7 1020.5 0.0
26/07:30pm 26.5 22.8 4.3 24 11.4 ESE 13 17 7 9 1023.4 1020.2 0.0
26/07:00pm 27.2 22.3 4.3 23 11.8 ESE 19 26 10 14 1023.1 1020.0 0.0
26/06:30pm 27.7 22.8 4.1 22 12.2 ESE 19 28 10 15 1022.8 1019.7 0.0
26/06:00pm 28.1 22.2 3.7 21 12.5 ESE 24 35 13 19 1022.6 1019.5 0.0
26/05:30pm 28.6 22.6 3.5 20 12.9 E 24 33 13 18 1022.3 1019.2 0.0
26/05:00pm 28.5 22.5 3.4 20 12.9 E 24 33 13 18 1022.2 1019.1 0.0
26/04:30pm 29.0 23.5 3.8 20 13.0 ESE 22 33 12 18 1022.3 1019.2 0.0
26/04:00pm 28.5 23.0 4.1 21 12.7 SE 22 33 12 18 1022.4 1019.3 0.0
26/03:30pm 28.2 23.0 3.8 21 12.5 ESE 20 28 11 15 1022.6 1019.5 0.0
26/03:00pm 28.3 22.7 3.2 20 12.8 ESE 22 32 12 17 1022.8 1019.7 0.0
26/02:30pm 27.0 21.3 2.8 21 12.1 ESE 22 30 12 16 1023.0 1019.9 0.0
26/02:00pm 26.7 20.6 2.6 21 12.1 E 24 32 13 17 1023.7 1020.5 0.0
26/01:30pm 26.7 21.0 2.6 21 12.0 ESE 22 35 12 19 1024.2 1021.1 0.0
26/01:00pm 27.0 20.5 2.8 21 12.2 E 26 39 14 21 1024.5 1021.4 0.0
26/12:30pm 26.6 20.3 1.8 20 12.2 E 24 35 13 19 1024.8 1021.7 0.0
26/12:00pm 26.4 20.1 1.7 20 12.1 E 24 32 13 17 1025.3 1022.2 0.0
26/11:30am 25.2 18.6 2.0 22 11.3 E 26 37 14 20 1025.9 1022.8 0.0
26/11:00am 23.8 16.7 1.4 23 10.7 ESE 28 41 15 22 1026.3 1023.2 0.0
26/10:30am 23.3 15.9 1.6 24 10.4 ESE 30 39 16 21 1026.4 1023.3 0.0
26/10:00am 23.3 15.5 1.6 24 10.4 E 32 41 17 22 1026.5 1023.4 0.0
26/09:34am 22.7 15.7 1.7 25 10.1 E 28 46 15 25 1026.2 1023.1 0.0
26/09:30am 22.9 15.8 1.3 24 10.2 E 28 39 15 21 1026.1 1023.0 0.0
26/09:00am 21.1 14.4 1.4 27 9.2 ESE 26 33 14 18 1026.0 1022.9 0.0
26/08:30am 20.8 14.4 1.1 27 9.1 ESE 24 33 13 18 1025.9 1022.8 0.0
26/08:00am 20.9 14.5 1.2 27 9.2 ESE 24 37 13 20 1025.2 1022.1 0.0
26/07:30am 19.7 14.1 1.2 29 8.5 ESE 20 28 11 15 1024.7 1021.6 0.0
26/07:00am 19.1 14.1 1.1 30 8.3 SE 17 24 9 13 1024.4 1021.3 0.0
26/06:30am 18.8 14.2 1.3 31 8.0 SE 15 20 8 11 1023.9 1020.8 0.0
26/06:00am 18.8 14.1 0.9 30 8.2 SE 15 20 8 11 1023.5 1020.3 0.0
26/05:30am 19.3 14.2 0.8 29 8.4 SE 17 22 9 12 1023.0 1019.9 0.0
26/05:00am 19.4 13.9 0.9 29 8.5 SE 19 22 10 12 1022.7 1019.6 0.0
26/04:30am 19.4 14.3 0.9 29 8.5 SE 17 22 9 12 1022.4 1019.3 0.0
26/04:00am 19.6 14.6 1.1 29 8.6 SE 17 22 9 12 1022.4 1019.3 0.0
26/03:30am 19.9 15.3 1.4 29 8.6 SE 15 22 8 12 1022.4 1019.3 0.0
26/03:00am 20.1 14.8 2.0 30 8.5 SE 19 24 10 13 1022.4 1019.3 0.0
26/02:30am 20.4 15.5 2.3 30 8.6 SSE 17 20 9 11 1022.5 1019.4 0.0
26/02:00am 20.6 16.1 2.0 29 8.8 SSE 15 19 8 10 1022.3 1019.2 0.0
26/01:30am 21.3 16.4 2.1 28 9.1 SE 17 20 9 11 1022.2 1019.1 0.0
26/01:00am 21.9 17.8 2.1 27 9.5 SE 13 17 7 9 1022.3 1019.2 0.0
26/12:30am 22.8 17.9 2.3 26 9.9 SE 17 24 9 13 1022.3 1019.2 0.0
26/12:00am 23.1 17.9 2.6 26 10.0 SE 19 24 10 13 1022.3 1019.2 0.0
 
Date/Time
CST
Temp
°C
App
Temp
°C
Dew
Point
Rel
Hum
%
Delta-T
°C
Wind Press
QNH
hPa
Press
MSL
hPa
Rain
since 9 am
mm
Dir
 
Spd
km/h
Gust
km/h
Spd
kts
Gust
kts
25/11:30pm 23.9 19.1 2.7 25 10.4 ESE 17 22 9 12 1022.5 1019.4 0.0
25/11:00pm 24.4 19.1 3.1 25 10.6 ESE 20 26 11 14 1022.5 1019.4 0.0
25/10:30pm 24.7 18.6 2.8 24 10.8 ESE 24 33 13 18 1022.4 1019.3 0.0
25/10:00pm 24.7 19.0 2.8 24 10.9 ESE 22 32 12 17 1022.5 1019.4 0.0
25/09:30pm 24.3 19.7 3.6 26 10.3 ESE 17 22 9 12 1022.2 1019.1 0.0
25/09:00pm 23.8 20.3 3.7 27 10.0 ESE 11 17 6 9 1022.0 1018.9 0.0
25/08:30pm 24.2 21.1 3.5 26 10.3 ESE 9 15 5 8 1021.8 1018.6 0.0
25/08:00pm 24.4 21.2 3.1 25 10.6 E 9 11 5 6 1021.7 1018.5 0.0
25/07:30pm 24.8 21.6 2.9 24 10.8 E 9 15 5 8 1021.2 1018.0 0.0
25/07:00pm 24.9 21.3 3.0 24 10.9 E 11 13 6 7 1020.8 1017.7 0.0
25/06:30pm 25.1 20.7 2.5 23 11.1 E 15 22 8 12 1020.5 1017.4 0.0
25/06:00pm 25.3 20.5 2.7 23 11.2 E 17 24 9 13 1020.2 1017.1 0.0
25/05:30pm 25.3 19.9 2.7 23 11.2 E 20 26 11 14 1020.1 1017.0 0.0
25/05:00pm 25.1 20.3 2.5 23 11.2 E 17 22 9 12 1020.0 1016.8 0.0
25/04:30pm 24.9 20.1 2.4 23 11.1 E 17 20 9 11 1020.1 1017.0 0.0
25/04:00pm 25.2 20.4 2.6 23 11.2 E 17 22 9 12 1020.2 1017.1 0.0
25/03:30pm 25.2 21.3 3.2 24 11.0 E 13 20 7 11 1020.4 1017.3 0.0
25/03:00pm 25.0 20.7 3.0 24 10.9 ESE 15 24 8 13 1020.4 1017.3 0.0

Other Formats:

Comma delimited format used in spreadsheet applications
http://www.bom.gov.au/fwo/IDD60801/IDD60801.94462.axf

JavaScript Object Notation format (JSON) in row-major order
http://www.bom.gov.au/fwo/IDD60801/IDD60801.94462.json